createdAt,value
2018-05-01T00:00:57.308Z,7.56
2018-05-01T00:01:57.182Z,7.60
2018-05-01T00:02:57.057Z,7.69
2018-05-01T00:03:56.931Z,7.62
2018-05-01T00:04:56.804Z,7.72
2018-05-01T00:05:56.681Z,7.67
2018-05-01T00:06:56.555Z,7.71
2018-05-01T00:07:56.426Z,7.74
2018-05-01T00:08:56.304Z,7.67
2018-05-01T00:09:56.177Z,7.56
2018-05-01T00:10:56.051Z,7.56
2018-05-01T00:11:55.925Z,7.59
2018-05-01T00:12:55.800Z,7.42
2018-05-01T00:13:55.672Z,7.47
2018-05-01T00:14:55.548Z,7.47
2018-05-01T00:15:55.420Z,7.38
2018-05-01T00:16:55.296Z,7.38
2018-05-01T00:17:55.170Z,7.34
2018-05-01T00:18:55.044Z,7.45
2018-05-01T00:19:54.923Z,7.45
2018-05-01T00:20:54.793Z,7.50
2018-05-01T00:21:54.666Z,7.47
2018-05-01T00:22:54.543Z,7.50
2018-05-01T00:23:54.419Z,7.44
2018-05-01T00:24:54.291Z,7.45
2018-05-01T00:25:54.164Z,7.45
2018-05-01T00:26:54.041Z,7.42
2018-05-01T00:27:53.913Z,7.38
2018-05-01T00:28:53.786Z,7.47
2018-05-01T00:29:53.663Z,7.58
2018-05-01T00:30:53.535Z,7.59
2018-05-01T00:31:53.409Z,7.55
2018-05-01T00:32:53.286Z,7.50
2018-05-01T00:33:53.167Z,7.56
2018-05-01T00:34:53.033Z,7.45
2018-05-01T00:35:52.913Z,7.47
2018-05-01T00:36:52.784Z,7.49
2018-05-01T00:37:52.656Z,7.56
2018-05-01T00:38:52.531Z,7.69
2018-05-01T00:39:52.408Z,7.72
2018-05-01T00:40:52.278Z,7.63
2018-05-01T00:41:52.154Z,7.74
2018-05-01T00:42:52.029Z,7.81
2018-05-01T00:43:51.904Z,7.87
2018-05-01T00:44:51.780Z,7.81
2018-05-01T00:45:51.653Z,7.59
2018-05-01T00:46:51.528Z,7.66
2018-05-01T00:47:51.401Z,7.40
2018-05-01T00:48:51.275Z,7.37
2018-05-01T00:49:51.151Z,7.27
2018-05-01T00:50:51.026Z,7.22
2018-05-01T00:51:50.945Z,7.27
2018-05-01T00:52:50.774Z,7.20
2018-05-01T00:53:50.651Z,7.19
2018-05-01T00:54:50.525Z,7.17
2018-05-01T00:55:50.397Z,7.20
2018-05-01T00:56:50.275Z,7.17
2018-05-01T00:57:50.145Z,7.16
2018-05-01T00:58:50.020Z,7.24
2018-05-01T00:59:49.897Z,7.22
2018-05-01T01:00:49.768Z,7.20
2018-05-01T01:01:49.644Z,7.26
2018-05-01T01:02:49.516Z,7.24
2018-05-01T01:03:49.394Z,7.22
2018-05-01T01:04:49.267Z,7.22
2018-05-01T01:05:49.142Z,7.19
2018-05-01T01:06:49.017Z,7.20
2018-05-01T01:07:48.889Z,7.23
2018-05-01T01:08:48.761Z,7.31
2018-05-01T01:09:48.636Z,7.19
2018-05-01T01:10:48.511Z,7.31
2018-05-01T01:11:48.385Z,7.34
2018-05-01T01:12:48.259Z,7.29
2018-05-01T01:13:48.133Z,7.31
2018-05-01T01:14:48.005Z,7.32
2018-05-01T01:15:47.881Z,7.38
2018-05-01T01:16:47.754Z,7.32
2018-05-01T01:17:47.631Z,7.29
2018-05-01T01:18:47.503Z,7.37
2018-05-01T01:19:47.379Z,7.26
2018-05-01T01:20:47.253Z,7.38
2018-05-01T01:21:47.125Z,7.37
2018-05-01T01:22:47.002Z,7.40
2018-05-01T01:23:46.873Z,7.47
2018-05-01T01:24:46.747Z,7.50
2018-05-01T01:25:46.624Z,7.44
2018-05-01T01:26:46.498Z,7.37
2018-05-01T01:27:46.375Z,7.31
2018-05-01T01:28:46.251Z,7.35
2018-05-01T01:29:46.121Z,7.50
2018-05-01T01:30:45.993Z,7.38
2018-05-01T01:31:45.870Z,7.34
2018-05-01T01:32:45.742Z,7.32
2018-05-01T01:33:45.617Z,7.13
2018-05-01T01:34:45.493Z,7.12
2018-05-01T01:35:45.367Z,7.09
2018-05-01T01:36:45.240Z,7.05
2018-05-01T01:37:45.115Z,7.08
2018-05-01T01:38:44.988Z,7.16
2018-05-01T01:39:44.863Z,7.09
2018-05-01T01:40:44.738Z,7.15
2018-05-01T01:41:44.612Z,7.20
2018-05-01T01:42:44.562Z,7.13
2018-05-01T01:43:44.361Z,7.26
2018-05-01T01:44:44.235Z,7.31
2018-05-01T01:45:44.108Z,7.35
2018-05-01T01:46:43.985Z,7.32
2018-05-01T01:47:43.857Z,7.40
2018-05-01T01:48:43.733Z,7.37
2018-05-01T01:49:43.605Z,7.34
2018-05-01T01:50:43.483Z,7.35
2018-05-01T01:51:43.359Z,7.41
2018-05-01T01:52:43.233Z,7.44
2018-05-01T01:53:43.105Z,7.45
2018-05-01T01:54:42.976Z,7.53
2018-05-01T01:55:42.857Z,7.52
2018-05-01T01:56:42.727Z,7.44
2018-05-01T01:57:42.599Z,7.52
2018-05-01T01:58:42.476Z,7.38
2018-05-01T01:59:42.353Z,7.16
2018-05-01T02:00:42.224Z,7.23
2018-05-01T02:01:42.097Z,7.20
2018-05-01T02:02:41.974Z,7.09
2018-05-01T02:03:41.852Z,6.98
2018-05-01T02:04:41.721Z,7.04
2018-05-01T02:05:41.594Z,7.04
2018-05-01T02:06:41.471Z,7.01
2018-05-01T02:07:41.345Z,7.16
2018-05-01T02:08:41.218Z,7.09
2018-05-01T02:09:41.093Z,7.16
2018-05-01T02:10:40.968Z,6.94
2018-05-01T02:11:40.841Z,6.89
2018-05-01T02:12:40.717Z,6.91
2018-05-01T02:13:40.592Z,6.89
2018-05-01T02:14:40.466Z,6.73
2018-05-01T02:15:40.338Z,6.71
2018-05-01T02:16:40.218Z,6.73
2018-05-01T02:17:40.086Z,6.68
2018-05-01T02:18:39.964Z,6.59
2018-05-01T02:19:39.835Z,6.66
2018-05-01T02:20:39.709Z,6.50
2018-05-01T02:21:39.583Z,6.50
2018-05-01T02:22:39.461Z,6.47
2018-05-01T02:23:39.330Z,6.54
2018-05-01T02:24:39.204Z,6.46
2018-05-01T02:25:39.080Z,6.41
2018-05-01T02:26:38.956Z,6.40
2018-05-01T02:27:38.829Z,6.36
2018-05-01T02:28:38.701Z,6.33
2018-05-01T02:29:38.574Z,6.32
2018-05-01T02:30:38.456Z,6.36
2018-05-01T02:31:38.325Z,6.40
2018-05-01T02:32:38.201Z,6.32
2018-05-01T02:33:38.073Z,6.46
2018-05-01T02:34:37.945Z,6.50
2018-05-01T02:35:37.817Z,6.51
2018-05-01T02:36:37.689Z,6.50
2018-05-01T02:37:37.563Z,6.32
2018-05-01T02:38:37.439Z,6.10
2018-05-01T02:39:37.311Z,6.07
2018-05-01T02:40:37.185Z,5.95
2018-05-01T02:41:37.061Z,5.83
2018-05-01T02:42:36.933Z,5.83
2018-05-01T02:43:36.813Z,5.82
2018-05-01T02:44:36.679Z,5.81
2018-05-01T02:45:36.553Z,5.70
2018-05-01T02:46:36.426Z,5.71
2018-05-01T02:47:36.300Z,5.60
2018-05-01T02:48:36.173Z,5.52
2018-05-01T02:49:36.043Z,5.43
2018-05-01T02:50:35.925Z,5.38
2018-05-01T02:51:35.790Z,5.46
2018-05-01T02:52:35.665Z,5.46
2018-05-01T02:53:35.537Z,5.48
2018-05-01T02:54:35.411Z,5.46
2018-05-01T02:55:35.282Z,5.38
2018-05-01T02:56:35.204Z,5.38
2018-05-01T02:57:35.029Z,5.38
2018-05-01T02:58:34.905Z,5.37
2018-05-01T02:59:34.775Z,5.50
2018-05-01T03:00:34.644Z,5.50
2018-05-01T03:01:34.524Z,5.48
2018-05-01T03:02:34.393Z,5.50
2018-05-01T03:03:34.265Z,5.55
2018-05-01T03:04:34.139Z,5.55
2018-05-01T03:05:34.015Z,5.56
2018-05-01T03:06:33.883Z,5.63
2018-05-01T03:07:33.760Z,5.67
2018-05-01T03:08:33.630Z,5.77
2018-05-01T03:09:33.502Z,5.75
2018-05-01T03:10:33.377Z,5.73
2018-05-01T03:11:33.248Z,5.73
2018-05-01T03:12:33.120Z,5.60
2018-05-01T03:13:32.992Z,5.63
2018-05-01T03:14:32.871Z,5.57
2018-05-01T03:15:32.739Z,5.68
2018-05-01T03:16:32.612Z,5.67
2018-05-01T03:17:32.483Z,5.71
2018-05-01T03:18:32.358Z,5.85
2018-05-01T03:19:32.235Z,5.78
2018-05-01T03:20:32.107Z,5.73
2018-05-01T03:21:31.976Z,5.71
2018-05-01T03:22:31.849Z,5.78
2018-05-01T03:23:31.723Z,5.74
2018-05-01T03:24:31.598Z,5.74
2018-05-01T03:25:31.469Z,5.57
2018-05-01T03:26:31.346Z,5.57
2018-05-01T03:27:31.215Z,5.49
2018-05-01T03:28:31.089Z,5.52
2018-05-01T03:29:30.960Z,5.49
2018-05-01T03:30:30.836Z,5.40
2018-05-01T03:31:30.718Z,5.25
2018-05-01T03:32:30.581Z,5.16
2018-05-01T03:33:30.458Z,5.10
2018-05-01T03:34:30.339Z,5.13
2018-05-01T03:35:30.202Z,5.19
2018-05-01T03:36:30.073Z,5.22
2018-05-01T03:37:29.944Z,5.34
2018-05-01T03:38:29.821Z,5.38
2018-05-01T03:39:29.695Z,5.49
2018-05-01T03:40:29.567Z,5.52
2018-05-01T03:41:29.436Z,5.34
2018-05-01T03:42:29.313Z,5.32
2018-05-01T03:43:29.183Z,5.25
2018-05-01T03:44:29.054Z,5.25
2018-05-01T03:45:28.932Z,5.13
2018-05-01T03:46:28.800Z,5.10
2018-05-01T03:47:28.677Z,5.16
2018-05-01T03:48:28.548Z,4.96
2018-05-01T03:49:28.422Z,4.89
2018-05-01T03:50:28.296Z,4.91
2018-05-01T03:51:28.168Z,4.86
2018-05-01T03:52:28.041Z,5.16
2018-05-01T03:53:27.910Z,5.14
2018-05-01T03:54:27.784Z,5.25
2018-05-01T03:55:27.658Z,5.16
2018-05-01T03:56:27.529Z,5.13
2018-05-01T03:57:27.402Z,5.16
2018-05-01T03:58:27.275Z,5.14
2018-05-01T03:59:27.189Z,5.19
2018-05-01T04:00:27.020Z,5.10
2018-05-01T04:01:26.891Z,4.91
2018-05-01T04:02:26.765Z,4.94
2018-05-01T04:03:26.640Z,4.94
2018-05-01T04:04:26.509Z,4.89
2018-05-01T04:05:26.385Z,4.92
2018-05-01T04:06:26.254Z,4.91
2018-05-01T04:07:26.127Z,4.89
2018-05-01T04:08:25.997Z,4.89
2018-05-01T04:09:25.871Z,4.88
2018-05-01T04:10:25.745Z,4.91
2018-05-01T04:11:25.618Z,4.80
2018-05-01T04:12:25.492Z,4.88
2018-05-01T04:13:25.360Z,4.80
2018-05-01T04:14:25.232Z,4.73
2018-05-01T04:15:25.107Z,4.83
2018-05-01T04:16:24.976Z,4.80
2018-05-01T04:17:24.853Z,4.80
2018-05-01T04:18:24.755Z,4.91
2018-05-01T04:19:24.596Z,4.94
2018-05-01T04:20:24.467Z,5.07
2018-05-01T04:21:24.342Z,5.13
2018-05-01T04:22:24.212Z,5.17
2018-05-01T04:23:24.085Z,5.14
2018-05-01T04:24:23.956Z,5.13
2018-05-01T04:25:23.847Z,5.07
2018-05-01T04:26:23.702Z,4.94
2018-05-01T04:27:23.575Z,4.95
2018-05-01T04:28:23.446Z,4.91
2018-05-01T04:29:23.320Z,4.91
2018-05-01T04:30:23.193Z,4.88
2018-05-01T04:31:23.066Z,4.92
2018-05-01T04:32:22.938Z,4.83
2018-05-01T04:33:22.811Z,4.89
2018-05-01T04:34:22.681Z,4.96
2018-05-01T04:35:22.556Z,4.88
2018-05-01T04:36:22.426Z,4.95
2018-05-01T04:37:22.298Z,4.99
2018-05-01T04:38:22.227Z,4.89
2018-05-01T04:39:22.046Z,4.79
2018-05-01T04:40:21.917Z,4.83
2018-05-01T04:41:21.786Z,4.80
2018-05-01T04:42:21.660Z,4.98
2018-05-01T04:43:21.532Z,4.89
2018-05-01T04:44:21.406Z,4.88
2018-05-01T04:45:21.276Z,4.91
2018-05-01T04:46:21.155Z,4.89
2018-05-01T04:47:21.023Z,4.89
2018-05-01T04:48:20.896Z,4.96
2018-05-01T04:49:20.771Z,4.89
2018-05-01T04:50:20.641Z,4.95
2018-05-01T04:51:20.513Z,4.91
2018-05-01T04:52:20.383Z,4.86
2018-05-01T04:53:20.266Z,4.94
2018-05-01T04:54:20.131Z,4.91
2018-05-01T04:55:20.004Z,4.96
2018-05-01T04:56:19.874Z,4.99
2018-05-01T04:57:19.749Z,5.09
2018-05-01T04:58:19.620Z,5.09
2018-05-01T04:59:19.494Z,4.94
2018-05-01T05:00:19.365Z,4.95
2018-05-01T05:01:19.239Z,4.95
2018-05-01T05:02:19.111Z,4.86
2018-05-01T05:03:18.982Z,4.75
2018-05-01T05:04:18.856Z,4.72
2018-05-01T05:05:18.729Z,4.84
2018-05-01T05:06:18.603Z,4.70
2018-05-01T05:07:18.473Z,4.83
2018-05-01T05:08:18.346Z,4.67
2018-05-01T05:09:18.227Z,4.73
2018-05-01T05:10:18.090Z,4.76
2018-05-01T05:11:17.964Z,4.64
2018-05-01T05:12:17.839Z,4.57
2018-05-01T05:13:17.722Z,4.61
2018-05-01T05:14:17.582Z,4.61
2018-05-01T05:15:17.455Z,4.61
2018-05-01T05:16:17.330Z,4.72
2018-05-01T05:17:17.197Z,4.73
2018-05-01T05:18:17.072Z,4.73
2018-05-01T05:19:16.942Z,4.84
2018-05-01T05:20:16.817Z,4.98
2018-05-01T05:21:16.691Z,5.13
2018-05-01T05:22:16.560Z,5.12
2018-05-01T05:23:16.434Z,5.12
2018-05-01T05:24:16.307Z,5.27
2018-05-01T05:25:16.177Z,5.27
2018-05-01T05:26:16.053Z,5.32
2018-05-01T05:27:15.923Z,5.38
2018-05-01T05:28:15.796Z,5.28
2018-05-01T05:29:15.669Z,5.32
2018-05-01T05:30:15.541Z,5.37
2018-05-01T05:31:15.412Z,5.49
2018-05-01T05:32:15.287Z,5.50
2018-05-01T05:33:15.156Z,5.52
2018-05-01T05:34:15.035Z,5.48
2018-05-01T05:35:14.903Z,5.49
2018-05-01T05:36:14.835Z,5.60
2018-05-01T05:37:14.647Z,5.64
2018-05-01T05:38:14.523Z,5.83
2018-05-01T05:39:14.395Z,5.96
2018-05-01T05:40:14.267Z,5.91
2018-05-01T05:41:14.138Z,5.93
2018-05-01T05:42:14.009Z,6.09
2018-05-01T05:43:13.885Z,6.04
2018-05-01T05:44:13.756Z,6.09
2018-05-01T05:45:13.627Z,6.10
2018-05-01T05:46:13.501Z,6.21
2018-05-01T05:47:13.374Z,6.25
2018-05-01T05:48:13.246Z,6.13
2018-05-01T05:49:13.121Z,6.11
2018-05-01T05:50:12.992Z,6.14
2018-05-01T05:51:12.866Z,6.10
2018-05-01T05:52:12.738Z,6.14
2018-05-01T05:53:12.613Z,6.30
2018-05-01T05:54:12.489Z,6.40
2018-05-01T05:55:12.358Z,6.30
2018-05-01T05:56:12.230Z,6.30
2018-05-01T05:57:12.103Z,6.33
2018-05-01T05:58:11.977Z,6.38
2018-05-01T05:59:11.850Z,6.28
2018-05-01T06:00:11.724Z,6.29
2018-05-01T06:01:11.643Z,6.36
2018-05-01T06:02:11.469Z,6.47
2018-05-01T06:03:11.342Z,6.43
2018-05-01T06:04:11.222Z,6.46
2018-05-01T06:05:11.087Z,6.47
2018-05-01T06:06:10.963Z,6.46
2018-05-01T06:07:10.834Z,6.46
2018-05-01T06:08:10.716Z,6.50
2018-05-01T06:09:10.580Z,6.48
2018-05-01T06:10:10.452Z,6.53
2018-05-01T06:11:10.325Z,6.44
2018-05-01T06:12:10.201Z,6.54
2018-05-01T06:13:10.073Z,6.53
2018-05-01T06:14:09.943Z,6.46
2018-05-01T06:15:09.818Z,6.51
2018-05-01T06:16:09.692Z,6.56
2018-05-01T06:17:09.565Z,6.46
2018-05-01T06:18:09.437Z,6.50
2018-05-01T06:19:09.312Z,6.54
2018-05-01T06:20:09.183Z,6.66
2018-05-01T06:21:09.056Z,6.61
2018-05-01T06:22:08.934Z,6.63
2018-05-01T06:23:08.807Z,6.68
2018-05-01T06:24:08.675Z,6.76
2018-05-01T06:25:08.551Z,6.68
2018-05-01T06:26:08.424Z,6.72
2018-05-01T06:27:08.299Z,6.80
2018-05-01T06:28:08.169Z,6.86
2018-05-01T06:29:08.041Z,6.77
2018-05-01T06:30:07.918Z,6.90
2018-05-01T06:31:07.844Z,7.04
2018-05-01T06:32:07.663Z,7.16
2018-05-01T06:33:07.537Z,7.23
2018-05-01T06:34:07.409Z,7.41
2018-05-01T06:35:07.281Z,7.69
2018-05-01T06:36:07.157Z,7.59
2018-05-01T06:37:07.027Z,7.58
2018-05-01T06:38:06.903Z,7.35
2018-05-01T06:39:06.781Z,7.35
2018-05-01T06:40:06.651Z,7.20
2018-05-01T06:41:06.525Z,7.29
2018-05-01T06:42:06.395Z,7.24
2018-05-01T06:43:06.274Z,7.32
2018-05-01T06:44:06.144Z,7.32
2018-05-01T06:45:06.021Z,7.23
2018-05-01T06:46:05.890Z,7.32
2018-05-01T06:47:05.768Z,7.41
2018-05-01T06:48:05.641Z,7.44
2018-05-01T06:49:05.512Z,7.59
2018-05-01T06:50:05.385Z,7.63
2018-05-01T06:51:05.260Z,7.78
2018-05-01T06:52:05.132Z,7.97
2018-05-01T06:53:05.008Z,8.14
2018-05-01T06:54:04.883Z,8.22
2018-05-01T06:55:04.838Z,8.32
2018-05-01T06:56:04.628Z,8.08
2018-05-01T06:57:04.502Z,8.04
2018-05-01T06:58:04.377Z,7.84
2018-05-01T06:59:04.251Z,7.82
2018-05-01T07:00:04.126Z,7.92
2018-05-01T07:01:03.999Z,7.84
2018-05-01T07:02:03.873Z,7.90
2018-05-01T07:03:03.747Z,7.84
2018-05-01T07:04:03.621Z,7.84
2018-05-01T07:05:03.498Z,7.81
2018-05-01T07:06:03.371Z,7.82
2018-05-01T07:07:03.244Z,7.84
2018-05-01T07:08:03.116Z,7.84
2018-05-01T07:09:02.992Z,7.90
2018-05-01T07:10:02.867Z,8.10
2018-05-01T07:11:02.739Z,8.25
2018-05-01T07:12:02.611Z,8.45
2018-05-01T07:13:02.489Z,8.55
2018-05-01T07:14:02.364Z,8.39
2018-05-01T07:15:02.238Z,8.42
2018-05-01T07:16:02.110Z,8.54
2018-05-01T07:17:01.986Z,8.50
2018-05-01T07:18:01.859Z,8.66
2018-05-01T07:19:01.735Z,8.66
2018-05-01T07:20:01.608Z,8.69
2018-05-01T07:21:01.483Z,8.53
2018-05-01T07:22:01.361Z,8.60
2018-05-01T07:23:01.232Z,8.84
2018-05-01T07:24:01.105Z,9.10
2018-05-01T07:25:00.978Z,9.30
2018-05-01T07:26:00.858Z,9.38
2018-05-01T07:27:00.729Z,9.50
2018-05-01T07:28:00.603Z,9.56
2018-05-01T07:29:00.479Z,9.63
2018-05-01T07:30:00.354Z,9.67
2018-05-01T07:31:00.231Z,9.76
2018-05-01T07:32:00.105Z,9.73
2018-05-01T07:32:59.977Z,9.75
2018-05-01T07:33:59.855Z,9.83
2018-05-01T07:34:59.727Z,9.89
2018-05-01T07:35:59.602Z,10.15
2018-05-01T07:36:59.478Z,10.25
2018-05-01T07:37:59.356Z,10.18
2018-05-01T07:38:59.230Z,10.14
2018-05-01T07:39:59.102Z,10.07
2018-05-01T07:40:58.979Z,10.06
2018-05-01T07:41:58.853Z,10.19
2018-05-01T07:42:58.734Z,10.14
2018-05-01T07:43:58.608Z,10.25
2018-05-01T07:44:58.481Z,9.93
2018-05-01T07:45:58.359Z,10.17
2018-05-01T07:46:58.237Z,10.22
2018-05-01T07:47:58.110Z,10.34
2018-05-01T07:48:57.989Z,10.37
2018-05-01T07:49:57.860Z,10.26
2018-05-01T07:50:57.742Z,10.09
2018-05-01T07:51:57.613Z,10.22
2018-05-01T07:52:57.577Z,10.25
2018-05-01T07:53:57.366Z,10.51
2018-05-01T07:54:57.240Z,10.66
2018-05-01T07:55:57.116Z,10.66
2018-05-01T07:56:56.993Z,10.62
2018-05-01T07:57:56.868Z,10.43
2018-05-01T07:58:56.747Z,10.42
2018-05-01T07:59:56.619Z,10.59
2018-05-01T08:00:56.500Z,10.62
2018-05-01T08:01:56.372Z,10.74
2018-05-01T08:02:56.319Z,10.73
2018-05-01T08:03:56.125Z,10.65
2018-05-01T08:04:56.004Z,10.03
2018-05-01T08:05:55.876Z,9.89
2018-05-01T08:06:55.771Z,10.07
2018-05-01T08:07:55.629Z,10.09
2018-05-01T08:08:55.506Z,10.36
2018-05-01T08:09:55.381Z,10.70
2018-05-01T08:10:55.257Z,10.83
2018-05-01T08:11:55.133Z,10.44
2018-05-01T08:12:55.010Z,10.28
2018-05-01T08:13:54.887Z,10.33
2018-05-01T08:14:54.762Z,10.52
2018-05-01T08:15:54.639Z,10.62
2018-05-01T08:16:54.515Z,10.80
2018-05-01T08:17:54.390Z,10.96
2018-05-01T08:18:54.268Z,11.20
2018-05-01T08:19:54.145Z,11.28
2018-05-01T08:20:54.020Z,11.50
2018-05-01T08:21:53.900Z,11.07
2018-05-01T08:22:53.772Z,10.46
2018-05-01T08:23:53.651Z,10.42
2018-05-01T08:24:53.527Z,10.32
2018-05-01T08:25:53.403Z,10.25
2018-05-01T08:26:53.280Z,10.18
2018-05-01T08:27:53.155Z,10.55
2018-05-01T08:28:53.033Z,10.58
2018-05-01T08:29:52.910Z,10.98
2018-05-01T08:30:52.788Z,11.17
2018-05-01T08:31:52.662Z,10.83
2018-05-01T08:32:52.544Z,10.39
2018-05-01T08:33:52.416Z,9.88
2018-05-01T08:34:52.296Z,9.75
2018-05-01T08:35:52.175Z,9.86
2018-05-01T08:36:52.051Z,10.30
2018-05-01T08:37:51.929Z,10.76
2018-05-01T08:38:51.804Z,11.20
2018-05-01T08:39:51.678Z,11.43
2018-05-01T08:40:51.555Z,11.78
2018-05-01T08:41:51.432Z,12.02
2018-05-01T08:42:51.310Z,11.99
2018-05-01T08:43:51.184Z,11.94
2018-05-01T08:44:51.066Z,12.20
2018-05-01T08:45:50.940Z,12.09
2018-05-01T08:46:50.816Z,11.99
2018-05-01T08:47:50.697Z,11.99
2018-05-01T08:48:50.570Z,12.02
2018-05-01T08:49:50.447Z,12.34
2018-05-01T08:50:50.325Z,12.45
2018-05-01T08:51:50.203Z,12.39
2018-05-01T08:52:50.080Z,12.02
2018-05-01T08:53:50.014Z,12.08
2018-05-01T08:54:49.834Z,12.20
2018-05-01T08:55:49.713Z,12.56
2018-05-01T08:56:49.588Z,12.66
2018-05-01T08:57:49.469Z,12.45
2018-05-01T08:58:49.345Z,12.71
2018-05-01T08:59:49.221Z,12.67
2018-05-01T09:00:49.097Z,12.70
2018-05-01T09:01:48.978Z,12.70
2018-05-01T09:02:48.854Z,12.87
2018-05-01T09:03:48.735Z,12.69
2018-05-01T09:04:48.612Z,12.52
2018-05-01T09:05:48.488Z,12.64
2018-05-01T09:06:48.367Z,12.44
2018-05-01T09:07:48.246Z,12.31
2018-05-01T09:08:48.119Z,12.31
2018-05-01T09:09:47.998Z,12.41
2018-05-01T09:10:47.880Z,12.46
2018-05-01T09:11:47.754Z,12.63
2018-05-01T09:12:47.631Z,12.39
2018-05-01T09:13:47.508Z,12.21
2018-05-01T09:14:47.385Z,12.09
2018-05-01T09:15:47.260Z,11.87
2018-05-01T09:16:47.145Z,11.68
2018-05-01T09:17:47.138Z,11.68
2018-05-01T09:18:46.900Z,11.68
2018-05-01T09:19:46.772Z,11.68
2018-05-01T09:20:46.652Z,11.72
2018-05-01T09:21:46.533Z,11.75
2018-05-01T09:22:46.409Z,11.70
2018-05-01T09:23:46.281Z,11.54
2018-05-01T09:24:46.164Z,11.54
2018-05-01T09:25:46.036Z,11.54
2018-05-01T09:26:45.915Z,11.43
2018-05-01T09:27:45.789Z,11.28
2018-05-01T09:28:45.669Z,11.13
2018-05-01T09:29:45.541Z,11.43
2018-05-01T09:30:45.422Z,11.67
2018-05-01T09:31:45.304Z,12.08
2018-05-01T09:32:45.175Z,12.38
2018-05-01T09:33:45.052Z,12.38
2018-05-01T09:34:44.929Z,12.31
2018-05-01T09:35:44.804Z,12.49
2018-05-01T09:36:44.682Z,12.44
2018-05-01T09:37:44.560Z,12.45
2018-05-01T09:38:44.436Z,12.49
2018-05-01T09:39:44.312Z,12.64
2018-05-01T09:40:44.192Z,12.69
2018-05-01T09:41:44.068Z,12.74
2018-05-01T09:42:43.944Z,12.75
2018-05-01T09:43:43.822Z,13.12
2018-05-01T09:44:43.699Z,13.21
2018-05-01T09:45:43.582Z,12.84
2018-05-01T09:46:43.455Z,12.63
2018-05-01T09:47:43.333Z,12.71
2018-05-01T09:48:43.209Z,12.67
2018-05-01T09:49:43.088Z,13.06
2018-05-01T09:50:42.964Z,13.69
2018-05-01T09:51:42.843Z,13.98
2018-05-01T09:52:42.720Z,14.25
2018-05-01T09:53:42.600Z,14.17
2018-05-01T09:54:42.474Z,14.19
2018-05-01T09:55:42.357Z,14.06
2018-05-01T09:56:42.231Z,13.74
2018-05-01T09:57:42.112Z,13.33
2018-05-01T09:58:41.988Z,13.09
2018-05-01T09:59:41.865Z,13.25
2018-05-01T10:00:41.746Z,13.44
2018-05-01T10:01:41.626Z,13.87
2018-05-01T10:02:41.501Z,14.14
2018-05-01T10:03:41.378Z,14.24
2018-05-01T10:04:41.264Z,14.37
2018-05-01T10:05:41.137Z,14.04
2018-05-01T10:06:41.017Z,13.79
2018-05-01T10:07:40.892Z,13.77
2018-05-01T10:08:40.771Z,13.92
2018-05-01T10:09:40.650Z,13.87
2018-05-01T10:10:40.531Z,13.70
2018-05-01T10:11:40.407Z,13.36
2018-05-01T10:12:40.286Z,13.38
2018-05-01T10:13:40.166Z,13.41
2018-05-01T10:14:40.042Z,13.49
2018-05-01T10:15:39.923Z,13.29
2018-05-01T10:16:39.801Z,13.18
2018-05-01T10:17:39.680Z,13.00
2018-05-01T10:18:39.560Z,13.18
2018-05-01T10:19:39.438Z,13.74
2018-05-01T10:20:39.317Z,14.04
2018-05-01T10:21:39.195Z,13.99
2018-05-01T10:22:39.073Z,14.35
2018-05-01T10:23:38.951Z,14.04
2018-05-01T10:24:38.831Z,13.96
2018-05-01T10:25:38.709Z,14.01
2018-05-01T10:26:38.587Z,13.95
2018-05-01T10:27:38.472Z,13.77
2018-05-01T10:28:38.398Z,13.70
2018-05-01T10:29:38.232Z,13.69
2018-05-01T10:30:38.110Z,13.88
2018-05-01T10:31:37.981Z,13.96
2018-05-01T10:32:37.864Z,13.77
2018-05-01T10:33:37.741Z,13.94
2018-05-01T10:34:37.623Z,14.09
2018-05-01T10:35:37.499Z,13.88
2018-05-01T10:36:37.378Z,13.74
2018-05-01T10:37:37.256Z,13.59
2018-05-01T10:38:37.248Z,14.02
2018-05-01T10:39:38.999Z,14.04
2018-05-01T10:40:36.895Z,14.49
2018-05-01T10:41:36.773Z,14.91
2018-05-01T10:42:36.657Z,14.62
2018-05-01T10:43:36.531Z,14.31
2018-05-01T10:44:36.412Z,14.01
2018-05-01T10:45:36.294Z,13.98
2018-05-01T10:46:36.171Z,13.81
2018-05-01T10:47:36.053Z,13.79
2018-05-01T10:48:35.928Z,13.62
2018-05-01T10:49:35.810Z,13.88
2018-05-01T10:50:35.694Z,14.46
2018-05-01T10:51:35.566Z,14.91
2018-05-01T10:52:35.449Z,15.05
2018-05-01T10:53:35.330Z,14.99
2018-05-01T10:54:35.263Z,14.49
2018-05-01T10:55:35.087Z,14.67
2018-05-01T10:56:34.966Z,14.75
2018-05-01T10:57:34.846Z,14.47
2018-05-01T10:58:34.727Z,14.04
2018-05-01T10:59:34.606Z,14.13
2018-05-01T11:00:34.565Z,14.01
2018-05-01T11:01:34.364Z,14.12
2018-05-01T11:02:34.245Z,14.06
2018-05-01T11:03:34.123Z,13.61
2018-05-01T11:04:34.008Z,13.80
2018-05-01T11:05:33.883Z,14.17
2018-05-01T11:06:33.765Z,14.69
2018-05-01T11:07:33.641Z,15.12
2018-05-01T11:08:33.520Z,14.71
2018-05-01T11:09:33.401Z,14.44
2018-05-01T11:10:33.281Z,14.50
2018-05-01T11:11:33.158Z,14.47
2018-05-01T11:12:33.038Z,14.64
2018-05-01T11:13:32.919Z,14.81
2018-05-01T11:14:32.798Z,14.98
2018-05-01T11:15:32.683Z,15.15
2018-05-01T11:16:32.559Z,15.24
2018-05-01T11:17:32.469Z,14.91
2018-05-01T11:18:32.319Z,14.67
2018-05-01T11:19:32.198Z,14.24
2018-05-01T11:20:32.080Z,14.20
2018-05-01T11:21:31.962Z,14.02
2018-05-01T11:22:31.841Z,13.89
2018-05-01T11:23:31.716Z,13.74
2018-05-01T11:24:31.618Z,13.21
2018-05-01T11:25:31.477Z,13.41
2018-05-01T11:26:31.358Z,13.91
2018-05-01T11:27:31.236Z,14.13
2018-05-01T11:28:31.137Z,14.10
2018-05-01T11:29:31.000Z,14.31
2018-05-01T11:30:30.876Z,14.21
2018-05-01T11:31:30.755Z,14.25
2018-05-01T11:32:30.633Z,14.10
2018-05-01T11:33:30.577Z,13.83
2018-05-01T11:34:30.393Z,13.83
2018-05-01T11:35:30.273Z,13.44
2018-05-01T11:36:30.154Z,13.52
2018-05-01T11:37:30.033Z,13.88
2018-05-01T11:38:29.911Z,14.17
2018-05-01T11:39:29.792Z,14.47
2018-05-01T11:40:29.680Z,14.38
2018-05-01T11:41:29.552Z,14.20
2018-05-01T11:42:29.431Z,13.84
2018-05-01T11:43:29.309Z,13.84
2018-05-01T11:44:29.192Z,13.96
2018-05-01T11:45:29.068Z,14.07
2018-05-01T11:46:28.971Z,14.64
2018-05-01T11:47:28.825Z,14.71
2018-05-01T11:48:28.703Z,15.05
2018-05-01T11:49:28.587Z,15.08
2018-05-01T11:50:28.466Z,14.91
2018-05-01T11:51:28.343Z,15.31
2018-05-01T11:52:28.226Z,14.99
2018-05-01T11:53:28.105Z,14.90
2018-05-01T11:54:27.984Z,15.21
2018-05-01T11:55:27.864Z,15.35
2018-05-01T11:56:27.746Z,15.67
2018-05-01T11:57:27.622Z,16.45
2018-05-01T11:58:27.503Z,16.68
2018-05-01T11:59:27.385Z,16.26
2018-05-01T12:00:27.265Z,15.28
2018-05-01T12:01:27.146Z,14.87
2018-05-01T12:02:27.026Z,15.28
2018-05-01T12:03:26.908Z,14.69
2018-05-01T12:04:26.787Z,14.24
2018-05-01T12:05:26.673Z,14.67
2018-05-01T12:06:26.550Z,14.42
2018-05-01T12:07:26.430Z,14.43
2018-05-01T12:08:26.311Z,14.44
2018-05-01T12:09:26.190Z,14.38
2018-05-01T12:10:26.068Z,14.34
2018-05-01T12:11:25.949Z,13.87
2018-05-01T12:12:25.829Z,13.59
2018-05-01T12:13:25.710Z,13.54
2018-05-01T12:14:25.590Z,13.80
2018-05-01T12:15:25.467Z,13.77
2018-05-01T12:16:25.348Z,13.74
2018-05-01T12:17:25.227Z,14.20
2018-05-01T12:18:25.110Z,14.54
2018-05-01T12:19:24.989Z,15.01
2018-05-01T12:20:24.865Z,15.12
2018-05-01T12:21:24.746Z,15.67
2018-05-01T12:22:24.626Z,15.64
2018-05-01T12:23:24.504Z,15.70
2018-05-01T12:24:24.385Z,15.60
2018-05-01T12:25:24.266Z,15.33
2018-05-01T12:26:24.145Z,15.63
2018-05-01T12:27:24.026Z,15.30
2018-05-01T12:28:23.907Z,15.59
2018-05-01T12:29:23.788Z,15.31
2018-05-01T12:30:23.680Z,15.12
2018-05-01T12:31:23.548Z,15.30
2018-05-01T12:32:23.429Z,15.61
2018-05-01T12:33:23.309Z,15.52
2018-05-01T12:34:23.191Z,15.51
2018-05-01T12:35:23.073Z,15.78
2018-05-01T12:36:23.034Z,15.93
2018-05-01T12:37:22.831Z,15.26
2018-05-01T12:38:22.715Z,15.33
2018-05-01T12:39:22.592Z,15.41
2018-05-01T12:40:22.475Z,15.03
2018-05-01T12:41:22.355Z,14.47
2018-05-01T12:42:22.354Z,13.81
2018-05-01T12:43:22.116Z,13.62
2018-05-01T12:44:21.997Z,13.91
2018-05-01T12:45:21.876Z,13.88
2018-05-01T12:46:21.757Z,14.07
2018-05-01T12:47:21.637Z,13.99
2018-05-01T12:48:21.551Z,14.24
2018-05-01T12:49:21.396Z,14.43
2018-05-01T12:50:21.278Z,14.60
2018-05-01T12:51:21.156Z,14.71
2018-05-01T12:52:21.040Z,14.88
2018-05-01T12:53:20.918Z,15.01
2018-05-01T12:54:20.796Z,15.33
2018-05-01T12:55:20.681Z,16.06
2018-05-01T12:56:20.556Z,16.16
2018-05-01T12:57:20.439Z,16.03
2018-05-01T12:58:20.319Z,16.50
2018-05-01T12:59:20.202Z,16.68
2018-05-01T13:00:20.079Z,16.56
2018-05-01T13:01:19.963Z,15.64
2018-05-01T13:02:19.844Z,14.93
2018-05-01T13:03:19.727Z,14.64
2018-05-01T13:04:19.602Z,14.43
2018-05-01T13:05:19.485Z,14.01
2018-05-01T13:06:19.367Z,14.35